Time;durP1;ratioP1;P1;durP2;ratioP2;P2;SDS_P1;SDS_P2;PMS_P1;PMS_P2;Temp;Humidity;BMP_temperature;BMP_pressure;BME280_temperature;BME280_humidity;BME280_pressure;Samples;Min_cycle;Max_cycle;Signal;HPM_P1;HPM_P2
2023/08/12 00:00:20;;;;;;;15.90;7.00;;;;;;;14.78;96.22;101135.93;212432;1296;141551;-83
2023/08/12 00:05:21;;;;;;;12.30;6.30;;;;;;;14.73;96.71;101136.93;212993;1296;111443;-83
2023/08/12 00:10:22;;;;;;;17.70;7.50;;;;;;;14.68;96.74;101128.67;212328;1294;141085;-83
2023/08/12 00:15:22;;;;;;;14.50;6.80;;;;;;;14.63;96.60;101122.61;212875;1297;139720;-83
2023/08/12 00:20:22;;;;;;;12.20;7.10;;;;;;;14.59;96.63;101114.05;212392;1295;141178;-83
2023/08/12 00:25:23;;;;;;;10.80;6.10;;;;;;;14.55;96.96;101109.44;213028;1296;139151;-84
2023/08/12 00:30:24;;;;;;;13.10;7.00;;;;;;;14.51;96.20;101112.10;212362;1294;141280;-83
2023/08/12 00:35:24;;;;;;;11.00;6.60;;;;;;;14.50;96.97;101112.73;213064;1295;99290;-83
2023/08/12 00:40:26;;;;;;;10.40;6.00;;;;;;;14.46;97.18;101109.46;212487;1294;141047;-83
2023/08/12 00:45:27;;;;;;;13.50;7.10;;;;;;;14.44;97.02;101107.15;212943;1296;138799;-83
2023/08/12 00:50:28;;;;;;;15.50;7.10;;;;;;;14.42;97.08;101104.28;212390;1294;142427;-83
2023/08/12 00:55:29;;;;;;;14.40;7.40;;;;;;;14.40;97.57;101104.12;212962;1299;138871;-83
2023/08/12 01:00:31;;;;;;;11.60;7.10;;;;;;;14.37;97.87;101101.83;212434;1296;143945;-84
2023/08/12 01:05:33;;;;;;;10.40;6.40;;;;;;;14.34;98.21;101095.06;213877;1298;138849;-82
2023/08/12 01:10:36;;;;;;;12.60;6.90;;;;;;;14.34;98.33;101096.48;212533;1294;140921;-83
2023/08/12 01:15:38;;;;;;;20.40;6.80;;;;;;;14.31;98.88;101102.95;213012;1293;138701;-82
2023/08/12 01:20:39;;;;;;;10.60;6.30;;;;;;;14.28;98.21;101102.45;212473;1294;141030;-82
2023/08/12 01:25:41;;;;;;;13.40;8.10;;;;;;;14.26;97.97;101098.73;212853;1298;139058;-82
2023/08/12 01:30:45;;;;;;;12.50;7.00;;;;;;;14.24;97.77;101089.55;212365;1297;141339;-82
2023/08/12 01:35:53;;;;;;;14.00;7.90;;;;;;;14.23;97.70;101087.88;212907;1297;138984;-82
2023/08/12 01:40:54;;;;;;;15.40;7.30;;;;;;;14.24;97.83;101089.86;212688;1297;140874;-82
2023/08/12 01:45:55;;;;;;;12.40;8.30;;;;;;;14.23;97.65;101088.83;212968;1297;139886;-82
2023/08/12 01:50:55;;;;;;;17.80;9.70;;;;;;;14.22;98.24;101080.20;212495;1293;142136;-83
2023/08/12 01:55:56;;;;;;;19.30;9.20;;;;;;;14.22;97.81;101076.01;213060;1298;138846;-83
2023/08/12 02:00:56;;;;;;;20.00;9.60;;;;;;;14.22;98.72;101073.23;212454;1296;141690;-82
2023/08/12 02:05:57;;;;;;;16.90;10.40;;;;;;;14.22;98.52;101074.98;212931;1298;139995;-84
2023/08/12 02:10:57;;;;;;;17.40;9.20;;;;;;;14.21;98.55;101071.96;212820;1296;141115;-82
2023/08/12 02:15:58;;;;;;;15.30;9.00;;;;;;;14.20;98.69;101071.89;213062;1299;138731;-83
2023/08/12 02:20:58;;;;;;;14.90;9.30;;;;;;;14.18;98.57;101064.23;212482;1294;141195;-83
2023/08/12 02:26:00;;;;;;;14.70;9.80;;;;;;;14.16;98.63;101065.17;213158;1296;138831;-82
2023/08/12 02:31:01;;;;;;;17.00;9.00;;;;;;;14.14;98.55;101059.30;213091;1297;141247;-82
2023/08/12 02:36:02;;;;;;;14.50;9.10;;;;;;;14.11;99.02;101059.92;213122;1298;138895;-83
2023/08/12 02:41:02;;;;;;;16.00;10.70;;;;;;;14.09;98.97;101055.88;212538;1298;141840;-83
2023/08/12 02:46:03;;;;;;;17.60;10.10;;;;;;;14.08;99.35;101060.14;212969;1295;140031;-83
2023/08/12 02:51:03;;;;;;;20.30;9.90;;;;;;;14.05;99.69;101061.39;212454;1296;140942;-82
2023/08/12 02:56:04;;;;;;;14.00;9.40;;;;;;;14.02;99.60;101061.98;212875;1300;139084;-83
2023/08/12 03:01:04;;;;;;;13.60;8.90;;;;;;;13.99;99.78;101064.75;212502;1298;141340;-83
2023/08/12 03:06:05;;;;;;;14.60;9.10;;;;;;;13.96;99.93;101066.93;213074;1298;139382;-82
2023/08/12 03:11:06;;;;;;;14.70;8.90;;;;;;;13.92;99.79;101063.48;212432;1295;141435;-83
2023/08/12 03:16:12;;;;;;;13.30;9.30;;;;;;;13.89;99.82;101062.45;213078;1298;138960;-83
2023/08/12 03:21:12;;;;;;;17.50;10.60;;;;;;;13.87;100.00;101066.46;213242;1294;142237;-83
2023/08/12 03:26:14;;;;;;;17.40;10.90;;;;;;;13.85;100.00;101067.55;213030;1300;139434;-83
2023/08/12 03:31:14;;;;;;;18.70;11.00;;;;;;;13.85;100.00;101068.98;212486;1299;142910;-83
2023/08/12 03:36:15;;;;;;;18.50;11.60;;;;;;;13.84;100.00;101061.14;212960;1299;139373;-83
2023/08/12 03:41:16;;;;;;;13.60;10.40;;;;;;;13.85;100.00;101067.55;212707;1298;141020;-83
2023/08/12 03:46:17;;;;;;;19.30;11.60;;;;;;;13.86;100.00;101076.25;213068;1298;139079;-83
2023/08/12 03:51:17;;;;;;;16.40;10.90;;;;;;;13.86;100.00;101076.09;212555;1297;142932;-82
2023/08/12 03:56:18;;;;;;;18.50;11.40;;;;;;;13.85;100.00;101073.64;213207;1298;139237;-83
2023/08/12 04:01:18;;;;;;;18.10;11.10;;;;;;;13.84;100.00;101074.90;212383;1298;143602;-83
2023/08/12 04:06:19;;;;;;;17.00;11.80;;;;;;;13.84;100.00;101073.72;212894;1298;139254;-83
2023/08/12 04:11:19;;;;;;;18.00;11.90;;;;;;;13.85;100.00;101072.84;212418;1294;143657;-82
2023/08/12 04:16:20;;;;;;;17.90;12.00;;;;;;;13.86;100.00;101069.07;212851;1294;139133;-82
2023/08/12 04:21:20;;;;;;;20.00;12.90;;;;;;;13.86;100.00;101070.88;212431;1295;140876;-83
2023/08/12 04:26:20;;;;;;;20.60;14.00;;;;;;;13.87;100.00;101069.95;212908;1300;139702;-83
2023/08/12 04:31:21;;;;;;;19.90;12.90;;;;;;;13.89;100.00;101073.13;212414;1299;140731;-83
2023/08/12 04:36:21;;;;;;;19.70;13.10;;;;;;;13.90;100.00;101081.20;212915;1295;141525;-83
2023/08/12 04:41:23;;;;;;;23.20;13.80;;;;;;;13.93;100.00;101084.69;212537;1295;141696;-82
2023/08/12 04:46:24;;;;;;;23.40;15.00;;;;;;;13.97;100.00;101076.89;212968;1296;139068;-82
2023/08/12 04:51:24;;;;;;;20.90;14.10;;;;;;;14.02;100.00;101073.21;212432;1298;141746;-84
2023/08/12 04:56:28;;;;;;;24.00;14.90;;;;;;;14.09;100.00;101069.40;212938;1297;139262;-85
2023/08/12 05:01:29;;;;;;;20.30;14.10;;;;;;;14.13;100.00;101060.65;212410;1297;141698;-85
2023/08/12 05:06:29;;;;;;;17.60;13.10;;;;;;;14.21;100.00;101055.98;213075;1295;140185;-86
2023/08/12 05:11:30;;;;;;;20.80;14.00;;;;;;;14.29;100.00;101057.70;212492;1299;142373;-85
2023/08/12 05:16:30;;;;;;;19.80;14.40;;;;;;;14.41;100.00;101052.39;213127;1299;107400;-85
2023/08/12 05:21:30;;;;;;;20.10;13.10;;;;;;;14.54;100.00;101046.83;212653;1294;142046;-86
2023/08/12 05:26:33;;;;;;;20.70;13.70;;;;;;;14.76;100.00;101037.42;213188;1298;139458;-85
2023/08/12 05:31:33;;;;;;;23.40;13.10;;;;;;;15.01;100.00;101026.11;212886;1293;142912;-86
2023/08/12 05:36:35;;;;;;;19.90;13.40;;;;;;;15.24;100.00;101032.50;213109;1299;139342;-84
2023/08/12 05:41:36;;;;;;;18.00;13.30;;;;;;;15.49;100.00;101036.13;212712;1298;143682;-85
2023/08/12 05:46:36;;;;;;;21.70;13.40;;;;;;;15.78;100.00;101037.88;213163;1297;108180;-85
2023/08/12 05:51:38;;;;;;;22.30;12.40;;;;;;;16.08;100.00;101035.86;212542;1295;143153;-84
2023/08/12 05:56:38;;;;;;;14.40;10.70;;;;;;;16.40;99.73;101028.58;213129;1299;139536;-85
2023/08/12 06:01:39;;;;;;;19.30;10.70;;;;;;;16.70;98.16;101019.51;212583;1298;142934;-85
2023/08/12 06:06:39;;;;;;;16.50;10.80;;;;;;;17.01;96.86;101014.35;213230;1298;139948;-86
2023/08/12 06:11:40;;;;;;;17.00;11.10;;;;;;;17.31;95.36;101017.02;213122;1296;141778;-84
2023/08/12 06:16:40;;;;;;;15.50;9.40;;;;;;;17.58;93.87;101014.92;213416;1298;98055;-84
2023/08/12 06:21:41;;;;;;;16.10;9.40;;;;;;;17.85;93.03;101017.16;212859;1295;141014;-86
2023/08/12 06:26:41;;;;;;;15.50;9.30;;;;;;;18.13;92.32;101015.52;213687;1293;139155;-86
2023/08/12 06:31:42;;;;;;;18.60;9.00;;;;;;;18.44;90.14;101021.43;213517;1300;142157;-87
2023/08/12 06:36:42;;;;;;;17.20;8.70;;;;;;;18.71;89.23;101019.83;214713;1298;139750;-85
2023/08/12 06:41:43;;;;;;;14.90;8.10;;;;;;;18.97;88.42;101012.55;214483;1297;141408;-84
2023/08/12 06:46:43;;;;;;;11.40;7.20;;;;;;;19.22;86.95;101003.04;214568;1297;98053;-85
2023/08/12 06:51:44;;;;;;;13.30;6.90;;;;;;;19.47;85.35;101003.77;214102;1294;141810;-87
2023/08/12 06:56:44;;;;;;;15.70;7.20;;;;;;;19.71;84.41;100994.67;214598;1298;139917;-87
2023/08/12 07:01:44;;;;;;;14.60;7.00;;;;;;;19.98;83.64;100987.42;214059;1294;140969;-85
2023/08/12 07:06:45;;;;;;;12.20;6.40;;;;;;;20.28;82.60;100990.70;214767;1298;139399;-83
2023/08/12 07:11:45;;;;;;;13.20;6.80;;;;;;;20.55;81.54;100992.88;214097;1294;140383;-85
2023/08/12 07:16:46;;;;;;;10.50;5.50;;;;;;;20.85;79.85;100995.58;214559;1297;97879;-84
2023/08/12 07:21:46;;;;;;;13.00;6.30;;;;;;;21.13;80.50;100991.60;214029;1295;141090;-84
2023/08/12 07:26:46;;;;;;;12.30;6.20;;;;;;;21.41;78.54;100986.21;214395;1298;139270;-84
2023/08/12 07:31:47;;;;;;;10.60;5.90;;;;;;;21.66;78.30;100984.00;213940;1296;145229;-83
2023/08/12 07:36:47;;;;;;;12.50;5.50;;;;;;;21.89;75.99;100974.79;214384;1298;139532;-83
2023/08/12 07:41:48;;;;;;;9.70;5.30;;;;;;;22.05;75.62;100978.19;214688;1298;141359;-83
2023/08/12 07:46:49;;;;;;;12.20;5.80;;;;;;;22.26;74.86;100981.70;215121;1297;99315;-85
2023/08/12 07:51:49;;;;;;;12.70;5.40;;;;;;;22.50;75.13;100984.01;214385;1298;140760;-83
2023/08/12 07:56:50;;;;;;;11.50;5.50;;;;;;;22.83;73.96;100990.08;214259;1295;139123;-85
2023/08/12 08:01:50;;;;;;;12.80;5.80;;;;;;;23.11;71.72;100984.63;213660;1298;141539;-86
2023/08/12 08:06:51;;;;;;;11.70;4.70;;;;;;;23.45;71.07;100979.47;214167;1296;138898;-85
2023/08/12 08:11:51;;;;;;;10.60;5.60;;;;;;;23.77;69.19;100978.29;213749;1295;141376;-85
2023/08/12 08:16:52;;;;;;;12.20;4.90;;;;;;;24.05;68.45;100976.21;214411;1298;97653;-86
2023/08/12 08:21:52;;;;;;;10.30;4.30;;;;;;;24.39;68.00;100976.23;213648;1295;140510;-87
2023/08/12 08:26:52;;;;;;;7.80;4.20;;;;;;;24.80;64.97;100973.13;214242;1295;138780;-85
2023/08/12 08:31:53;;;;;;;8.50;4.50;;;;;;;25.17;65.14;100976.16;213789;1299;141070;-87
2023/08/12 08:36:54;;;;;;;8.20;3.90;;;;;;;25.60;63.70;100963.27;214432;1296;139142;-87
2023/08/12 08:41:56;;;;;;;9.20;4.50;;;;;;;26.23;64.82;100966.48;213781;1295;139826;-88
2023/08/12 08:46:58;;;;;;;9.60;4.30;;;;;;;27.01;61.11;100968.11;214387;1296;98592;-87
2023/08/12 08:52:00;;;;;;;7.90;3.90;;;;;;;27.63;58.68;100960.30;213612;1294;139775;-84
2023/08/12 08:57:00;;;;;;;9.20;3.60;;;;;;;28.08;56.29;100952.17;214404;1293;137840;-84
2023/08/12 09:02:01;;;;;;;8.90;3.60;;;;;;;28.48;55.74;100943.95;213790;1298;140849;-83
2023/08/12 09:07:02;;;;;;;11.30;3.90;;;;;;;29.09;54.90;100936.62;214504;1297;138861;-89
2023/08/12 09:12:04;;;;;;;12.00;3.70;;;;;;;29.82;54.66;100938.78;213904;1295;142440;-84
2023/08/12 09:17:04;;;;;;;8.50;3.40;;;;;;;30.31;50.97;100942.02;214432;1294;96643;-85
2023/08/12 09:22:07;;;;;;;8.20;3.60;;;;;;;30.33;50.34;100943.29;213654;1294;141507;-87
2023/08/12 09:27:07;;;;;;;9.60;3.60;;;;;;;30.95;49.60;100942.59;214178;1296;137914;-87
2023/08/12 09:32:12;;;;;;;6.30;3.30;;;;;;;31.52;49.06;100932.11;213818;1295;140569;-84
2023/08/12 09:37:13;;;;;;;8.00;3.80;;;;;;;31.86;46.45;100928.52;214460;1297;138195;-83
2023/08/12 09:42:14;;;;;;;6.50;3.50;;;;;;;31.82;46.39;100918.88;214140;1294;141066;-84
2023/08/12 09:47:14;;;;;;;8.40;3.70;;;;;;;31.68;45.11;100909.08;215195;1298;98473;-85
2023/08/12 09:52:15;;;;;;;8.30;3.60;;;;;;;31.73;45.16;100901.33;214103;1296;139935;-85
2023/08/12 09:57:18;;;;;;;6.30;3.40;;;;;;;32.24;45.05;100897.01;214259;1298;274176;-83
2023/08/12 10:02:20;;;;;;;9.20;3.40;;;;;;;32.56;44.06;100892.76;213365;1298;139021;-86
2023/08/12 10:07:21;;;;;;;6.30;3.10;;;;;;;32.72;43.21;100881.63;214047;1296;138446;-84
2023/08/12 10:12:22;;;;;;;8.00;3.10;;;;;;;33.04;42.76;100878.76;213477;1294;141176;-89
2023/08/12 10:17:24;;;;;;;6.30;3.10;;;;;;;33.61;42.06;100882.88;214147;1294;97722;-84
2023/08/12 10:22:26;;;;;;;6.40;3.00;;;;;;;33.66;40.73;100875.70;213460;1298;140367;-85
2023/08/12 10:27:26;;;;;;;5.70;3.50;;;;;;;33.84;41.55;100872.67;214022;1296;138011;-85
2023/08/12 10:32:27;;;;;;;6.70;3.10;;;;;;;34.14;39.83;100862.84;213587;1294;142199;-84
2023/08/12 10:37:32;;;;;;;5.70;3.00;;;;;;;33.70;40.29;100858.71;214059;1296;138216;-83
2023/08/12 10:42:49;;;;;;;6.80;3.40;;;;;;;33.67;39.96;100862.30;213512;1298;140484;-85
2023/08/12 10:47:59;;;;;;;6.20;3.10;;;;;;;33.85;39.17;100853.98;214034;1293;138609;-84
2023/08/12 10:53:19;;;;;;;6.80;3.30;;;;;;;34.06;39.50;100847.52;213738;1293;139555;-84
2023/08/12 10:58:35;;;;;;;5.50;2.90;;;;;;;34.56;39.30;100844.52;214160;1296;138111;-84
2023/08/12 11:03:36;;;;;;;7.70;3.00;;;;;;;34.84;38.50;100835.55;213624;1298;140282;-83
2023/08/12 11:08:36;;;;;;;7.20;3.40;;;;;;;35.19;38.59;100837.58;214254;1296;138245;-83
2023/08/12 11:13:52;;;;;;;5.40;2.60;;;;;;;35.51;37.02;100832.98;213600;1294;141012;-87
2023/08/12 11:18:53;;;;;;;8.90;3.20;;;;;;;35.53;36.01;100833.08;214018;1298;139081;-83
2023/08/12 11:23:55;;;;;;;5.10;2.70;;;;;;;35.53;37.01;100826.14;213442;1295;140306;-85
2023/08/12 11:28:55;;;;;;;5.60;2.70;;;;;;;35.30;35.71;100820.17;214249;1296;99182;-84
2023/08/12 11:33:56;;;;;;;6.90;2.40;;;;;;;35.00;36.14;100817.73;213648;1297;138727;-86
2023/08/12 11:38:56;;;;;;;5.10;2.90;;;;;;;34.82;35.94;100811.70;213982;1297;138133;-83
2023/08/12 11:43:57;;;;;;;4.90;2.50;;;;;;;34.94;36.32;100810.15;213717;1293;140059;-85
2023/08/12 11:48:57;;;;;;;8.60;3.10;;;;;;;34.99;35.86;100806.77;213965;1293;140629;-83
2023/08/12 11:53:58;;;;;;;5.40;2.50;;;;;;;34.98;35.44;100806.54;213866;1296;139317;-84
2023/08/12 11:58:59;;;;;;;4.50;2.60;;;;;;;34.83;35.58;100791.88;213627;1296;140314;-84
2023/08/12 12:04:03;;;;;;;6.10;2.70;;;;;;;34.95;35.64;100791.89;214073;1294;138470;-83
2023/08/12 12:09:06;;;;;;;6.30;3.30;;;;;;;34.97;35.49;100782.70;213429;1297;140401;-83
2023/08/12 12:14:09;;;;;;;4.40;2.60;;;;;;;34.72;35.32;100778.70;214250;1293;138184;-82
2023/08/12 12:19:22;;;;;;;7.40;2.60;;;;;;;34.45;35.78;100769.30;213354;1294;140070;-84
2023/08/12 12:24:29;;;;;;;4.60;2.80;;;;;;;34.41;35.29;100774.42;213723;1297;139125;-87
2023/08/12 12:29:30;;;;;;;5.80;2.70;;;;;;;34.42;35.68;100771.30;213447;1293;140141;-85
2023/08/12 12:34:30;;;;;;;6.00;2.90;;;;;;;34.16;35.43;100766.20;214108;1296;97981;-85
2023/08/12 12:39:32;;;;;;;7.20;2.50;;;;;;;33.80;36.15;100761.71;213484;1294;140285;-85
2023/08/12 12:44:32;;;;;;;5.90;2.60;;;;;;;33.77;37.04;100754.00;214481;1294;138441;-83
2023/08/12 12:49:33;;;;;;;8.50;3.00;;;;;;;33.89;37.27;100754.35;214105;1296;140113;-85
2023/08/12 12:54:33;;;;;;;8.10;3.50;;;;;;;33.65;36.83;100752.73;214173;1294;137965;-85
2023/08/12 12:59:34;;;;;;;6.50;2.80;;;;;;;33.40;36.82;100745.30;213375;1294;140077;-85
2023/08/12 13:04:34;;;;;;;6.70;3.00;;;;;;;33.24;36.90;100737.63;213980;1294;98012;-84
2023/08/12 13:09:34;;;;;;;7.70;3.40;;;;;;;32.97;37.64;100726.43;213309;1294;140259;-83
2023/08/12 13:14:35;;;;;;;6.10;2.80;;;;;;;33.05;38.46;100718.00;213951;1293;138514;-86
2023/08/12 13:19:35;;;;;;;7.00;2.90;;;;;;;33.13;37.68;100720.71;213154;1294;140731;-85
2023/08/12 13:24:36;;;;;;;4.40;2.60;;;;;;;33.10;38.82;100721.14;213020;1293;138022;-83
2023/08/12 13:29:36;;;;;;;8.10;2.80;;;;;;;33.12;38.35;100710.95;212330;1294;140399;-85
2023/08/12 13:34:37;;;;;;;9.10;3.30;;;;;;;33.03;38.01;100705.19;213174;1294;98028;-84
2023/08/12 13:39:37;;;;;;;4.60;2.90;;;;;;;33.04;38.81;100688.14;212368;1298;140153;-85
2023/08/12 13:44:38;;;;;;;6.50;3.00;;;;;;;33.15;38.88;100681.43;213044;1298;138346;-84
2023/08/12 13:49:38;;;;;;;7.40;3.30;;;;;;;32.85;38.73;100670.05;212442;1297;139944;-83
2023/08/12 13:54:39;;;;;;;5.70;2.70;;;;;;;32.48;39.50;100672.34;213080;1294;138292;-86
2023/08/12 13:59:43;;;;;;;5.60;3.00;;;;;;;32.50;39.92;100669.54;212501;1294;140528;-84
2023/08/12 14:04:44;;;;;;;6.20;3.30;;;;;;;32.49;40.76;100656.07;213053;1297;99290;-83
2023/08/12 14:09:44;;;;;;;5.30;2.90;;;;;;;32.41;40.30;100651.48;212381;1295;141231;-84
2023/08/12 14:14:45;;;;;;;7.00;3.10;;;;;;;32.24;40.36;100661.71;212855;1297;139343;-83
2023/08/12 14:19:50;;;;;;;6.30;3.10;;;;;;;31.98;40.82;100647.69;212579;1294;141068;-84
2023/08/12 14:24:51;;;;;;;5.50;3.10;;;;;;;31.88;42.13;100636.31;213420;1294;138142;-83
2023/08/12 14:29:51;;;;;;;10.10;4.20;;;;;;;31.81;41.53;100630.11;213022;1295;140233;-86
2023/08/12 14:34:52;;;;;;;11.00;3.50;;;;;;;31.73;41.76;100618.60;213307;1297;98077;-86
2023/08/12 14:39:52;;;;;;;5.50;2.80;;;;;;;31.70;41.04;100616.44;213055;1294;141548;-84
2023/08/12 14:44:53;;;;;;;7.60;3.40;;;;;;;31.68;41.61;100610.21;213243;1296;137903;-84
2023/08/12 14:49:53;;;;;;;9.80;3.20;;;;;;;31.72;41.51;100608.45;212739;1296;141019;-84
2023/08/12 14:54:54;;;;;;;6.90;3.40;;;;;;;31.66;40.87;100602.97;213358;1295;138172;-84
2023/08/12 14:59:55;;;;;;;6.40;3.00;;;;;;;31.56;40.89;100595.36;212961;1293;139785;-86
2023/08/12 15:04:55;;;;;;;6.40;3.40;;;;;;;31.45;40.76;100596.64;213259;1298;98530;-84
2023/08/12 15:09:57;;;;;;;5.50;2.90;;;;;;;31.36;41.42;100588.52;212658;1294;140470;-83
2023/08/12 15:14:58;;;;;;;6.00;3.10;;;;;;;31.35;42.37;100582.27;213126;1298;137790;-84
2023/08/12 15:19:58;;;;;;;6.90;2.60;;;;;;;31.22;42.08;100583.38;213329;1293;143032;-83
2023/08/12 15:24:59;;;;;;;9.00;4.10;;;;;;;31.00;42.50;100583.32;213843;1293;138163;-82
2023/08/12 15:30:00;;;;;;;7.10;2.90;;;;;;;30.82;42.78;100575.89;213512;1297;140421;-82
2023/08/12 15:35:01;;;;;;;7.70;2.90;;;;;;;30.67;42.68;100570.97;213875;1296;99131;-82
2023/08/12 15:40:02;;;;;;;5.50;3.00;;;;;;;30.41;43.69;100576.84;213370;1294;141018;-83
2023/08/12 15:45:03;;;;;;;12.00;3.50;;;;;;;30.40;43.48;100582.30;213843;1296;138403;-85
2023/08/12 15:50:04;;;;;;;7.80;3.00;;;;;;;30.38;43.44;100579.88;213381;1296;142096;-83
2023/08/12 15:55:05;;;;;;;8.50;2.90;;;;;;;30.31;43.44;100578.55;214039;1293;139300;-84
2023/08/12 16:00:07;;;;;;;4.90;2.60;;;;;;;30.23;43.64;100579.08;212801;1298;141418;-82
2023/08/12 16:05:08;;;;;;;5.90;3.20;;;;;;;30.14;44.33;100570.66;213156;1298;98493;-82
2023/08/12 16:10:09;;;;;;;7.30;2.90;;;;;;;30.02;44.91;100560.95;213130;1294;140244;-82
2023/08/12 16:15:10;;;;;;;5.40;3.00;;;;;;;29.87;45.17;100565.00;213727;1293;138664;-82
2023/08/12 16:20:12;;;;;;;5.40;2.60;;;;;;;29.73;45.28;100566.30;213136;1295;140034;-83
2023/08/12 16:25:12;;;;;;;6.20;2.50;;;;;;;29.59;45.52;100565.15;213135;1299;138309;-82
2023/08/12 16:30:13;;;;;;;5.10;2.60;;;;;;;29.49;46.45;100561.38;212509;1296;140891;-82
2023/08/12 16:35:14;;;;;;;10.30;3.10;;;;;;;29.40;48.35;100558.84;212970;1294;98003;-82
2023/08/12 16:40:14;;;;;;;7.30;2.70;;;;;;;29.25;47.57;100558.96;212560;1294;141173;-82
2023/08/12 16:45:15;;;;;;;7.40;2.80;;;;;;;29.13;48.21;100545.45;212969;1296;138049;-82
2023/08/12 16:50:15;;;;;;;11.70;3.90;;;;;;;29.07;49.63;100538.80;212504;1297;140646;-81
2023/08/12 16:55:16;;;;;;;6.20;3.30;;;;;;;29.02;49.42;100541.73;212956;1296;139221;-81
2023/08/12 17:00:18;;;;;;;6.80;3.40;;;;;;;28.86;49.58;100533.39;212433;1296;140531;-82
2023/08/12 17:05:19;;;;;;;9.20;3.30;;;;;;;28.72;49.84;100530.63;213141;1296;98036;-82
2023/08/12 17:10:19;;;;;;;5.60;3.10;;;;;;;28.52;49.79;100524.48;212473;1298;141972;-82
2023/08/12 17:15:21;;;;;;;7.40;3.10;;;;;;;28.37;49.53;100515.45;213164;1296;138407;-82
2023/08/12 17:20:21;;;;;;;6.50;3.00;;;;;;;28.21;49.52;100509.09;212656;1294;141215;-82
2023/08/12 17:25:22;;;;;;;5.60;2.90;;;;;;;28.05;49.58;100500.86;213556;1298;139107;-81
2023/08/12 17:30:22;;;;;;;6.50;2.70;;;;;;;27.87;49.73;100507.92;212862;1299;140634;-82
2023/08/12 17:35:23;;;;;;;8.30;3.00;;;;;;;27.75;50.35;100503.09;213439;1296;98419;-82
2023/08/12 17:40:23;;;;;;;5.60;2.90;;;;;;;27.66;50.72;100501.16;212570;1298;141309;-82
2023/08/12 17:45:24;;;;;;;5.10;2.90;;;;;;;27.53;51.13;100501.02;213195;1296;138013;-83
2023/08/12 17:50:25;;;;;;;7.80;3.70;;;;;;;27.38;52.12;100502.38;212731;1299;138777;-82
2023/08/12 17:55:25;;;;;;;7.20;3.10;;;;;;;27.26;51.82;100500.44;213142;1294;138609;-82
2023/08/12 18:00:26;;;;;;;10.20;3.40;;;;;;;27.12;51.98;100492.68;213117;1296;140459;-81
2023/08/12 18:05:26;;;;;;;8.00;3.30;;;;;;;27.03;52.70;100493.63;214114;1296;98217;-82
2023/08/12 18:10:39;;;;;;;6.80;3.40;;;;;;;26.95;53.25;100501.73;216651;1296;140296;-82
2023/08/12 18:15:39;;;;;;;8.90;3.40;;;;;;;26.86;53.72;100511.16;217177;1296;139036;-83
2023/08/12 18:20:40;;;;;;;8.20;3.40;;;;;;;26.74;53.85;100513.20;212936;1294;141701;-82
2023/08/12 18:25:40;;;;;;;16.50;3.40;;;;;;;26.65;54.17;100510.25;213181;1297;138425;-82
2023/08/12 18:30:41;;;;;;;14.20;3.90;;;;;;;26.52;54.43;100508.84;212485;1296;140589;-82
2023/08/12 18:35:41;;;;;;;9.10;3.50;;;;;;;26.39;54.80;100511.55;212977;1296;140434;-82
2023/08/12 18:40:42;;;;;;;9.20;3.30;;;;;;;26.26;55.39;100516.07;212815;1293;141084;-82
2023/08/12 18:45:42;;;;;;;7.10;3.30;;;;;;;26.17;55.83;100522.86;213489;1297;137905;-82
2023/08/12 18:50:42;;;;;;;8.10;3.50;;;;;;;26.02;55.80;100516.18;213023;1295;139862;-82
2023/08/12 18:55:43;;;;;;;10.70;3.50;;;;;;;25.92;56.47;100522.41;213882;1294;138520;-82
2023/08/12 19:00:43;;;;;;;9.50;4.00;;;;;;;25.83;56.42;100517.36;213559;1297;141832;-82
2023/08/12 19:05:45;;;;;;;11.80;4.00;;;;;;;25.75;56.99;100512.23;213957;1296;138234;-82
2023/08/12 19:10:56;;;;;;;9.20;3.90;;;;;;;25.65;57.46;100506.44;213460;1293;142947;-82
2023/08/12 19:15:56;;;;;;;13.20;4.30;;;;;;;25.56;57.79;100511.40;213543;1294;139215;-83
2023/08/12 19:20:57;;;;;;;8.70;4.70;;;;;;;25.48;58.13;100502.52;213103;1294;140755;-83
2023/08/12 19:25:57;;;;;;;11.20;4.10;;;;;;;25.43;58.25;100496.64;213181;1299;138265;-83
2023/08/12 19:30:58;;;;;;;15.10;4.70;;;;;;;25.37;58.38;100491.14;213113;1294;140557;-82
2023/08/12 19:35:58;;;;;;;10.00;4.50;;;;;;;25.32;58.87;100489.15;213646;1297;138379;-82
2023/08/12 19:41:02;;;;;;;9.70;4.50;;;;;;;25.27;58.93;100488.48;213338;1294;141707;-83
2023/08/12 19:46:02;;;;;;;9.60;3.80;;;;;;;25.24;59.04;100483.81;213321;1297;138053;-83
2023/08/12 19:51:03;;;;;;;10.00;3.80;;;;;;;25.18;59.28;100475.94;213289;1294;140480;-83
2023/08/12 19:56:04;;;;;;;7.80;4.10;;;;;;;25.13;59.28;100469.70;213374;1300;138385;-83
2023/08/12 20:01:04;;;;;;;8.00;4.10;;;;;;;25.07;59.35;100473.65;212902;1297;142242;-82
2023/08/12 20:06:04;;;;;;;9.30;3.80;;;;;;;24.99;59.58;100472.27;213271;1297;138035;-83
2023/08/12 20:11:05;;;;;;;8.80;3.40;;;;;;;24.89;59.49;100472.33;212833;1294;140274;-83
2023/08/12 20:16:06;;;;;;;12.50;4.10;;;;;;;24.81;59.88;100479.86;213119;1293;139041;-82
2023/08/12 20:21:07;;;;;;;8.00;3.60;;;;;;;24.75;59.40;100477.74;212561;1294;140772;-82
2023/08/12 20:26:09;;;;;;;10.60;3.70;;;;;;;24.69;59.51;100468.39;213183;1294;138277;-82
2023/08/12 20:31:10;;;;;;;7.80;3.70;;;;;;;24.62;59.49;100464.20;212676;1298;141156;-83
2023/08/12 20:36:10;;;;;;;10.90;3.70;;;;;;;24.56;59.50;100464.53;213193;1297;138137;-82
2023/08/12 20:41:11;;;;;;;10.90;4.10;;;;;;;24.49;59.68;100468.25;212752;1296;140354;-83
2023/08/12 20:46:11;;;;;;;8.60;4.10;;;;;;;24.42;59.71;100475.89;213414;1297;138583;-82
2023/08/12 20:51:12;;;;;;;7.60;3.50;;;;;;;24.35;59.37;100475.45;213182;1298;140373;-82
2023/08/12 20:56:12;;;;;;;9.90;4.50;;;;;;;24.32;59.39;100466.70;213774;1298;138536;-83
2023/08/12 21:01:13;;;;;;;10.60;5.20;;;;;;;24.28;59.53;100470.64;213274;1294;141775;-82
2023/08/12 21:06:13;;;;;;;11.80;5.10;;;;;;;24.25;59.65;100463.45;213692;1298;138192;-83
2023/08/12 21:11:14;;;;;;;8.30;4.60;;;;;;;24.22;60.09;100453.77;212723;1298;140813;-83
2023/08/12 21:16:14;;;;;;;14.00;4.80;;;;;;;24.18;60.26;100458.11;212988;1296;138454;-83
2023/08/12 21:21:14;;;;;;;11.30;4.40;;;;;;;24.16;60.69;100460.08;212396;1298;140509;-83
2023/08/12 21:26:15;;;;;;;10.30;4.30;;;;;;;24.15;60.87;100457.48;212919;1297;138289;-82
2023/08/12 21:31:15;;;;;;;8.30;4.00;;;;;;;24.13;61.13;100447.83;212680;1297;140104;-84
2023/08/12 21:36:16;;;;;;;10.60;3.90;;;;;;;24.13;61.23;100445.36;212975;1299;138059;-82
2023/08/12 21:41:16;;;;;;;7.00;4.00;;;;;;;24.13;61.12;100439.98;212628;1294;140693;-83
2023/08/12 21:46:17;;;;;;;10.40;4.80;;;;;;;24.12;61.12;100434.93;212983;1298;137890;-83
2023/08/12 21:51:22;;;;;;;9.50;4.20;;;;;;;24.13;61.25;100431.31;212556;1299;140177;-83
2023/08/12 21:56:22;;;;;;;9.10;4.50;;;;;;;24.11;61.42;100425.11;212664;1295;377348;-82
2023/08/12 22:01:23;;;;;;;8.70;4.30;;;;;;;24.09;61.64;100418.91;212504;1298;140098;-83
2023/08/12 22:06:23;;;;;;;12.20;5.10;;;;;;;24.08;61.58;100420.98;213087;1297;138500;-83
2023/08/12 22:11:27;;;;;;;11.00;4.20;;;;;;;24.05;61.50;100425.45;212650;1294;141611;-83
2023/08/12 22:16:27;;;;;;;13.60;4.30;;;;;;;24.04;61.63;100420.92;212968;1296;138362;-83
2023/08/12 22:21:28;;;;;;;8.90;4.80;;;;;;;24.01;62.13;100419.05;212982;1293;140484;-83
2023/08/12 22:26:28;;;;;;;9.00;4.40;;;;;;;23.97;62.37;100423.89;213547;1293;138676;-81
2023/08/12 22:31:29;;;;;;;7.90;3.90;;;;;;;23.94;62.37;100427.39;212772;1297;141227;-82
2023/08/12 22:36:29;;;;;;;10.10;4.30;;;;;;;23.90;62.86;100429.40;213261;1296;138198;-81